Time;durP1;ratioP1;P1;durP2;ratioP2;P2;SDS_P1;SDS_P2;PMS_P1;PMS_P2;Temp;Humidity;BMP_temperature;BMP_pressure;BME280_temperature;BME280_humidity;BME280_pressure;Samples;Min_cycle;Max_cycle;Signal;HPM_P1;HPM_P2
2023/12/15 00:00:06;;;;;;;11.48;5.82;;;5.80;99.90;;;;;;4939687;29;20048;-93
2023/12/15 00:02:32;;;;;;;11.23;6.32;;;5.90;99.90;;;;;;4936589;29;20027;-93
2023/12/15 00:04:57;;;;;;;10.38;5.82;;;5.90;99.90;;;;;;4943879;29;20574;-93
2023/12/15 00:07:23;;;;;;;11.35;6.38;;;5.90;99.90;;;;;;4941989;29;20032;-93
2023/12/15 00:09:48;;;;;;;10.15;5.93;;;5.80;99.90;;;;;;4938247;29;20052;-93
2023/12/15 00:12:14;;;;;;;10.10;6.05;;;5.80;99.90;;;;;;4942363;29;20391;-93
2023/12/15 00:14:40;;;;;;;7.85;4.55;;;5.80;99.90;;;;;;4945299;29;20075;-91
2023/12/15 00:17:06;;;;;;;10.50;3.90;;;5.80;99.90;;;;;;4942318;29;20036;-94
2023/12/15 00:19:32;;;;;;;9.13;5.10;;;5.80;99.90;;;;;;4936668;29;20123;-93
2023/12/15 00:21:57;;;;;;;12.25;5.45;;;5.80;99.90;;;;;;4938895;29;20023;-93
2023/12/15 00:24:23;;;;;;;9.88;5.88;;;5.80;99.90;;;;;;4934048;29;20032;-92
2023/12/15 00:26:48;;;;;;;9.38;5.15;;;5.80;99.90;;;;;;4940083;29;20016;-93
2023/12/15 00:29:14;;;;;;;10.25;5.53;;;5.70;99.90;;;;;;4928533;29;20032;-92
2023/12/15 00:31:40;;;;;;;8.60;4.80;;;5.70;99.90;;;;;;4940206;29;20034;-93
2023/12/15 00:34:06;;;;;;;11.32;5.78;;;5.60;99.90;;;;;;4938149;29;20055;-92
2023/12/15 00:36:31;;;;;;;12.18;5.45;;;5.60;99.90;;;;;;4942230;29;20024;-93
2023/12/15 00:38:57;;;;;;;10.45;6.13;;;5.60;99.90;;;;;;4943053;29;20030;-92
2023/12/15 00:41:23;;;;;;;11.43;7.15;;;5.60;99.90;;;;;;4939432;29;20024;-94
2023/12/15 00:43:49;;;;;;;13.15;6.70;;;5.60;99.90;;;;;;4943627;29;20054;-93
2023/12/15 00:46:15;;;;;;;12.43;5.90;;;5.50;99.90;;;;;;4943858;29;20032;-93
2023/12/15 00:48:41;;;;;;;15.85;7.03;;;5.50;99.90;;;;;;4943507;29;20031;-93
2023/12/15 00:51:07;;;;;;;12.27;6.25;;;5.50;99.90;;;;;;4938176;29;20024;-94
2023/12/15 00:53:32;;;;;;;13.02;7.45;;;5.60;99.90;;;;;;4938289;29;20498;-94
2023/12/15 00:56:01;;;;;;;12.18;5.68;;;5.50;99.90;;;;;;4940496;29;20050;-94
2023/12/15 00:58:27;;;;;;;12.48;6.55;;;5.50;99.90;;;;;;4939748;29;20031;-93
2023/12/15 01:00:52;;;;;;;14.20;6.78;;;5.50;99.90;;;;;;4933931;29;20024;-95
2023/12/15 01:03:21;;;;;;;14.65;6.25;;;5.60;99.90;;;;;;4939485;29;20042;-93
2023/12/15 01:05:46;;;;;;;14.80;7.05;;;5.60;99.90;;;;;;4939627;29;20034;-92
2023/12/15 01:08:12;;;;;;;11.80;6.25;;;5.60;99.90;;;;;;4939147;29;20310;-94
2023/12/15 01:10:38;;;;;;;13.27;7.75;;;5.60;99.90;;;;;;4936869;29;20387;-93
2023/12/15 01:13:03;;;;;;;10.82;6.50;;;5.70;99.90;;;;;;4935808;29;20028;-93
2023/12/15 01:15:29;;;;;;;15.70;6.90;;;5.60;99.90;;;;;;4929207;29;20035;-92
2023/12/15 01:17:57;;;;;;;14.40;6.28;;;5.60;99.90;;;;;;4937345;29;20036;-92
2023/12/15 01:20:23;;;;;;;14.23;7.10;;;5.60;99.90;;;;;;4943310;29;20137;-91
2023/12/15 01:22:49;;;;;;;15.40;7.88;;;5.50;99.90;;;;;;4944274;29;20517;-94
2023/12/15 01:25:14;;;;;;;12.85;7.18;;;5.50;99.90;;;;;;4938978;29;20035;-94
2023/12/15 01:27:40;;;;;;;16.10;7.75;;;5.50;99.90;;;;;;4934764;29;20027;-93
2023/12/15 01:30:07;;;;;;;14.95;7.07;;;5.40;99.90;;;;;;4938672;29;20028;-94
2023/12/15 01:32:33;;;;;;;17.73;7.93;;;5.50;99.90;;;;;;4935451;29;20016;-94
2023/12/15 01:35:01;;;;;;;14.65;6.95;;;5.40;99.90;;;;;;4939384;29;20031;-93
2023/12/15 01:37:27;;;;;;;16.58;7.97;;;5.50;99.90;;;;;;4940682;29;20032;-95
2023/12/15 01:39:52;;;;;;;13.45;7.45;;;5.50;99.90;;;;;;4930772;29;20621;-94
2023/12/15 01:42:18;;;;;;;12.70;7.15;;;5.50;99.90;;;;;;4940800;29;20075;-94
2023/12/15 01:44:44;;;;;;;17.75;7.90;;;5.50;99.90;;;;;;4937442;29;20076;-94
2023/12/15 01:47:12;;;;;;;14.82;7.18;;;5.50;99.90;;;;;;4942663;29;20032;-92
2023/12/15 01:49:41;;;;;;;12.95;6.93;;;5.50;99.90;;;;;;4945350;29;20011;-93
2023/12/15 01:52:07;;;;;;;13.40;6.80;;;5.50;99.90;;;;;;4940397;29;20028;-93
2023/12/15 01:54:32;;;;;;;14.45;7.57;;;5.50;99.90;;;;;;4940560;29;20035;-92
2023/12/15 01:56:58;;;;;;;14.93;6.90;;;5.50;99.90;;;;;;4943050;29;20027;-95
2023/12/15 01:59:23;;;;;;;14.18;8.77;;;5.50;99.90;;;;;;4945182;29;20757;-93
2023/12/15 02:01:49;;;;;;;13.95;7.35;;;5.50;99.90;;;;;;4935637;29;20027;-94
2023/12/15 02:04:15;;;;;;;16.23;7.57;;;5.40;99.90;;;;;;4938879;29;20091;-92
2023/12/15 02:06:40;;;;;;;14.68;7.20;;;5.40;99.90;;;;;;4947826;29;20032;-93
2023/12/15 02:09:07;;;;;;;14.38;7.18;;;5.40;99.90;;;;;;4945515;29;20058;-91
2023/12/15 02:11:32;;;;;;;16.67;9.02;;;5.40;99.90;;;;;;4936639;29;20529;-92
2023/12/15 02:13:58;;;;;;;19.45;7.65;;;5.40;99.90;;;;;;4945701;29;20039;-93
2023/12/15 02:16:23;;;;;;;13.50;7.63;;;5.30;99.90;;;;;;4946147;29;20019;-93
2023/12/15 02:18:49;;;;;;;16.58;7.22;;;5.30;99.90;;;;;;4941667;29;20032;-94
2023/12/15 02:21:15;;;;;;;15.07;7.47;;;5.30;99.90;;;;;;4935490;29;20048;-93
2023/12/15 02:23:40;;;;;;;16.52;7.85;;;5.30;99.90;;;;;;4945309;29;20036;-92
2023/12/15 02:26:06;;;;;;;18.48;8.95;;;5.30;99.90;;;;;;4943177;29;20042;-92
2023/12/15 02:28:32;;;;;;;13.48;7.53;;;5.30;99.90;;;;;;4946006;29;20409;-93
2023/12/15 02:30:57;;;;;;;15.85;7.95;;;5.30;99.90;;;;;;4946157;29;20015;-94
2023/12/15 02:33:23;;;;;;;12.98;6.80;;;5.30;99.90;;;;;;4946981;29;20043;-93
2023/12/15 02:35:51;;;;;;;16.73;6.80;;;5.30;99.90;;;;;;4927921;29;20034;-93
2023/12/15 02:38:18;;;;;;;16.80;6.90;;;5.30;99.90;;;;;;4926931;29;20024;-93
2023/12/15 02:40:44;;;;;;;13.70;7.15;;;5.20;99.90;;;;;;4936207;29;20024;-92
2023/12/15 02:43:11;;;;;;;13.63;7.18;;;5.30;99.90;;;;;;4938791;29;20067;-92
2023/12/15 02:45:37;;;;;;;14.60;6.88;;;5.20;99.90;;;;;;4939024;29;20246;-94
2023/12/15 02:48:03;;;;;;;16.27;7.57;;;5.20;99.90;;;;;;4947138;29;20016;-94
2023/12/15 02:50:29;;;;;;;12.55;6.65;;;5.20;99.90;;;;;;4943498;29;20027;-96
2023/12/15 02:52:55;;;;;;;18.30;9.50;;;5.20;99.90;;;;;;4941238;29;20130;-93
2023/12/15 02:55:20;;;;;;;12.13;7.07;;;5.30;99.90;;;;;;4935724;29;20024;-94
2023/12/15 02:57:46;;;;;;;15.23;7.13;;;5.30;99.90;;;;;;4939027;29;20035;-92
2023/12/15 03:00:14;;;;;;;12.23;6.45;;;5.30;99.90;;;;;;4926204;29;20043;-93
2023/12/15 03:02:40;;;;;;;14.48;6.97;;;5.30;99.90;;;;;;4942950;29;20028;-92
2023/12/15 03:05:06;;;;;;;15.18;7.38;;;5.20;99.90;;;;;;4937089;29;20046;-94
2023/12/15 03:07:31;;;;;;;13.60;6.90;;;5.20;99.90;;;;;;4935953;29;20043;-93
2023/12/15 03:09:57;;;;;;;14.77;7.22;;;5.20;99.90;;;;;;4937343;29;20039;-93
2023/12/15 03:12:23;;;;;;;12.82;5.93;;;5.20;99.90;;;;;;4945248;29;20051;-93
2023/12/15 03:14:49;;;;;;;19.77;7.72;;;5.20;99.90;;;;;;4945689;29;20028;-94
2023/12/15 03:17:16;;;;;;;15.00;7.35;;;5.20;99.90;;;;;;4936075;29;20547;-93
2023/12/15 03:19:42;;;;;;;18.10;8.18;;;5.20;99.90;;;;;;4942587;29;20077;-93
2023/12/15 03:22:08;;;;;;;13.73;7.65;;;5.10;99.90;;;;;;4938983;29;20042;-92
2023/12/15 03:24:33;;;;;;;19.50;9.15;;;5.10;99.90;;;;;;4937585;29;20056;-93
2023/12/15 03:26:59;;;;;;;14.00;7.95;;;5.20;99.90;;;;;;4939575;29;20032;-94
2023/12/15 03:29:25;;;;;;;17.15;8.55;;;5.20;99.90;;;;;;4941282;29;20079;-93
2023/12/15 03:31:50;;;;;;;17.92;9.15;;;5.20;99.90;;;;;;4944325;29;20549;-93
2023/12/15 03:34:16;;;;;;;21.58;9.05;;;5.20;99.90;;;;;;4945520;29;20035;-90
2023/12/15 03:36:41;;;;;;;18.98;9.05;;;5.10;99.90;;;;;;4945208;29;20213;-93
2023/12/15 03:39:07;;;;;;;17.80;9.48;;;5.10;99.90;;;;;;4939784;29;20024;-92
2023/12/15 03:41:33;;;;;;;17.65;9.15;;;5.10;99.90;;;;;;4942911;29;20031;-93
2023/12/15 03:43:59;;;;;;;19.23;8.75;;;5.10;99.90;;;;;;4944838;29;20024;-94
2023/12/15 03:46:25;;;;;;;20.00;8.95;;;5.10;99.90;;;;;;4941468;29;20023;-93
2023/12/15 03:48:51;;;;;;;20.75;9.55;;;5.10;99.90;;;;;;4934667;29;20067;-93
2023/12/15 03:51:17;;;;;;;19.38;8.93;;;5.10;99.90;;;;;;4938033;29;20135;-96
2023/12/15 03:53:43;;;;;;;19.45;8.88;;;5.10;99.90;;;;;;4926490;29;20021;-95
2023/12/15 03:56:09;;;;;;;25.10;10.90;;;5.10;99.90;;;;;;4930436;29;20507;-94
2023/12/15 03:58:36;;;;;;;18.73;9.82;;;5.10;99.90;;;;;;4925188;29;20035;-93
2023/12/15 04:01:02;;;;;;;19.85;9.73;;;5.10;99.90;;;;;;4932654;29;20040;-92
2023/12/15 04:03:28;;;;;;;18.38;9.85;;;5.10;99.90;;;;;;4941609;28;20032;-93
2023/12/15 04:05:56;;;;;;;23.55;10.55;;;5.10;99.90;;;;;;4936799;29;20031;-93
2023/12/15 04:08:22;;;;;;;20.38;9.85;;;5.00;99.90;;;;;;4939024;29;20028;-92
2023/12/15 04:10:47;;;;;;;19.25;9.95;;;5.00;99.90;;;;;;4941405;29;20056;-93
2023/12/15 04:13:13;;;;;;;30.50;11.35;;;5.00;99.90;;;;;;4936783;29;20024;-93
2023/12/15 04:15:39;;;;;;;21.13;9.68;;;5.00;99.90;;;;;;4943688;29;20083;-92
2023/12/15 04:18:04;;;;;;;23.13;11.18;;;5.00;99.90;;;;;;4941029;29;20039;-92
2023/12/15 04:20:31;;;;;;;25.20;11.05;;;5.00;99.90;;;;;;4925599;29;20060;-93
2023/12/15 04:22:56;;;;;;;23.45;10.30;;;5.00;99.90;;;;;;4936913;29;20028;-94
2023/12/15 04:25:31;;;;;;;24.23;12.40;;;5.00;99.90;;;;;;4947580;29;20050;-94
2023/12/15 04:27:56;;;;;;;27.33;11.57;;;5.00;99.90;;;;;;4945082;29;20028;-94
2023/12/15 04:30:22;;;;;;;24.75;11.57;;;5.00;99.90;;;;;;4930737;29;20062;-94
2023/12/15 04:32:47;;;;;;;23.70;11.75;;;5.00;99.90;;;;;;4930924;29;20035;-93
2023/12/15 04:35:13;;;;;;;29.55;12.45;;;5.00;99.90;;;;;;4936932;29;20079;-94
2023/12/15 04:37:44;;;;;;;26.63;11.60;;;4.90;99.90;;;;;;4950749;29;20023;-94
2023/12/15 04:40:13;;;;;;;23.45;10.93;;;4.90;99.90;;;;;;4946761;29;20035;-94
2023/12/15 04:42:39;;;;;;;27.30;11.93;;;4.90;99.90;;;;;;4931082;29;20028;-94
2023/12/15 04:45:07;;;;;;;26.42;12.60;;;4.90;99.90;;;;;;4943850;29;20031;-93
2023/12/15 04:47:33;;;;;;;27.23;11.98;;;4.90;99.90;;;;;;4951463;29;20028;-94
2023/12/15 04:49:59;;;;;;;26.27;11.20;;;4.90;99.90;;;;;;4948592;29;20024;-94
2023/12/15 04:52:25;;;;;;;26.77;11.82;;;4.90;99.90;;;;;;4951146;29;20028;-94
2023/12/15 04:54:51;;;;;;;26.27;11.60;;;5.00;99.90;;;;;;4951368;29;20487;-94
2023/12/15 04:57:17;;;;;;;30.25;13.60;;;5.00;99.90;;;;;;4932374;29;20384;-93
2023/12/15 04:59:42;;;;;;;26.08;11.15;;;5.00;99.90;;;;;;4930226;29;20028;-94
2023/12/15 05:02:08;;;;;;;29.67;11.65;;;5.00;99.90;;;;;;4932042;29;20036;-92
2023/12/15 05:04:37;;;;;;;29.08;13.63;;;5.00;99.90;;;;;;4930253;29;20079;-92
2023/12/15 05:07:03;;;;;;;31.35;14.38;;;5.00;99.90;;;;;;4929790;29;20418;-94
2023/12/15 05:09:29;;;;;;;34.33;14.48;;;5.00;99.90;;;;;;4938074;29;20032;-92
2023/12/15 05:11:55;;;;;;;30.92;12.95;;;5.00;99.90;;;;;;4944173;29;20028;-92
2023/12/15 05:14:23;;;;;;;29.77;13.23;;;5.00;99.90;;;;;;4945539;29;20034;-96
2023/12/15 05:16:49;;;;;;;34.60;13.13;;;5.00;99.90;;;;;;4949931;29;20024;-93
2023/12/15 05:19:15;;;;;;;34.92;14.02;;;5.10;99.90;;;;;;4949689;29;20051;-93
2023/12/15 05:21:41;;;;;;;28.38;12.77;;;5.10;99.90;;;;;;4948952;29;20051;-93
2023/12/15 05:24:06;;;;;;;32.35;14.02;;;5.10;99.90;;;;;;4935770;29;20032;-94
2023/12/15 05:26:32;;;;;;;34.08;14.02;;;5.10;99.90;;;;;;4934819;29;20068;-94
2023/12/15 05:28:58;;;;;;;26.50;12.93;;;5.10;99.90;;;;;;4947899;29;20067;-94
2023/12/15 05:31:24;;;;;;;34.45;16.40;;;5.10;99.90;;;;;;4949391;29;20376;-94
2023/12/15 05:33:49;;;;;;;38.35;14.15;;;5.10;99.90;;;;;;4951028;29;20039;-94
2023/12/15 05:36:19;;;;;;;33.55;13.07;;;5.10;99.90;;;;;;4951649;29;20048;-94
2023/12/15 05:38:46;;;;;;;33.42;14.13;;;5.10;99.90;;;;;;4948873;29;20095;-96
2023/12/15 05:41:11;;;;;;;30.00;13.15;;;5.10;99.90;;;;;;4950303;29;20020;-95
2023/12/15 05:43:37;;;;;;;35.78;15.07;;;5.10;99.90;;;;;;4949117;29;20106;-94
2023/12/15 05:46:03;;;;;;;29.75;12.93;;;5.00;99.90;;;;;;4937544;29;20057;-93
2023/12/15 05:48:28;;;;;;;30.65;14.48;;;5.10;99.90;;;;;;4934532;29;20040;-95
2023/12/15 05:50:54;;;;;;;35.72;14.82;;;5.00;99.90;;;;;;4950078;29;20020;-95
2023/12/15 05:53:20;;;;;;;28.35;13.07;;;5.10;99.90;;;;;;4952190;29;20106;-95
2023/12/15 05:55:47;;;;;;;31.48;15.88;;;5.00;99.90;;;;;;4953522;29;20024;-92
2023/12/15 05:58:13;;;;;;;35.40;14.45;;;5.00;99.90;;;;;;4953226;28;20035;-92
2023/12/15 06:00:41;;;;;;;32.28;15.43;;;5.00;99.90;;;;;;4951224;29;20016;-95
2023/12/15 06:03:07;;;;;;;33.72;13.98;;;5.00;99.90;;;;;;4951195;29;20110;-94
2023/12/15 06:05:34;;;;;;;31.08;13.30;;;5.00;99.90;;;;;;4949752;29;20035;-94
2023/12/15 06:08:03;;;;;;;30.75;13.27;;;5.10;99.90;;;;;;4956746;28;20114;-93
2023/12/15 06:10:29;;;;;;;34.33;13.20;;;5.00;99.90;;;;;;4955920;28;20036;-95
2023/12/15 06:12:55;;;;;;;32.35;15.68;;;5.00;99.90;;;;;;4950229;29;20398;-94
2023/12/15 06:15:20;;;;;;;34.78;15.70;;;5.10;99.90;;;;;;4948231;29;20032;-94
2023/12/15 06:17:46;;;;;;;36.80;15.40;;;5.10;99.90;;;;;;4938418;28;20028;-96
2023/12/15 06:20:15;;;;;;;34.08;16.17;;;5.10;99.90;;;;;;4952172;28;20036;-95
2023/12/15 06:22:40;;;;;;;38.88;14.20;;;5.10;99.90;;;;;;4940205;29;20122;-95
2023/12/15 06:25:08;;;;;;;36.85;14.32;;;5.10;99.90;;;;;;4934338;29;20036;-94
2023/12/15 06:27:34;;;;;;;33.40;16.20;;;5.10;99.90;;;;;;4960527;29;20732;-95
2023/12/15 06:30:00;;;;;;;33.53;13.02;;;5.10;99.90;;;;;;4952353;29;20030;-95
2023/12/15 06:32:26;;;;;;;34.40;14.27;;;5.20;99.90;;;;;;4952011;29;20027;-94
2023/12/15 06:34:51;;;;;;;30.95;12.80;;;5.20;99.90;;;;;;4950232;29;20505;-95
2023/12/15 06:37:17;;;;;;;32.72;14.55;;;5.20;99.90;;;;;;4951263;29;20035;-93
2023/12/15 06:39:45;;;;;;;32.47;14.73;;;5.20;99.90;;;;;;4950979;29;20024;-95
2023/12/15 06:42:11;;;;;;;;;;;5.20;99.90;;;;;;4950118;29;20044;-95
2023/12/15 06:44:37;;;;;;;35.28;13.65;;;5.30;99.90;;;;;;4951738;29;20502;-94
2023/12/15 06:47:03;;;;;;;40.35;15.15;;;5.30;99.90;;;;;;4952471;29;20028;-94
2023/12/15 06:49:32;;;;;;;37.85;15.20;;;5.30;99.90;;;;;;4950402;28;20529;-95
2023/12/15 06:51:59;;;;;;;36.08;13.38;;;5.30;99.90;;;;;;4949325;29;20023;-94
2023/12/15 06:54:25;;;;;;;37.25;15.82;;;5.30;99.90;;;;;;4956765;29;20027;-94
2023/12/15 06:56:51;;;;;;;39.60;14.02;;;5.30;99.90;;;;;;4956079;29;20039;-94
2023/12/15 06:59:17;;;;;;;33.33;13.10;;;5.40;99.90;;;;;;4952149;29;20024;-93
2023/12/15 07:01:43;;;;;;;30.80;14.15;;;5.40;99.90;;;;;;4942337;29;20035;-95
2023/12/15 07:04:09;;;;;;;30.23;14.85;;;5.40;99.90;;;;;;4935743;29;20032;-94
2023/12/15 07:06:38;;;;;;;32.38;13.45;;;5.40;99.90;;;;;;4936354;29;20116;-95
2023/12/15 07:09:04;;;;;;;32.42;13.77;;;5.40;99.90;;;;;;4941182;29;20051;-93
2023/12/15 07:11:30;;;;;;;31.75;13.05;;;5.40;99.90;;;;;;4953213;29;20482;-95
2023/12/15 07:13:55;;;;;;;31.17;13.65;;;5.40;99.90;;;;;;4953964;29;20035;-94
2023/12/15 07:16:21;;;;;;;29.33;13.43;;;5.40;99.90;;;;;;4953158;29;20040;-94
2023/12/15 07:18:49;;;;;;;37.55;13.95;;;5.40;99.90;;;;;;4947890;29;20546;-93
2023/12/15 07:21:15;;;;;;;35.90;14.98;;;5.40;99.90;;;;;;4943423;29;20027;-94
2023/12/15 07:23:41;;;;;;;29.58;13.27;;;5.40;99.90;;;;;;4971029;29;20035;-95
2023/12/15 07:26:06;;;;;;;30.33;13.00;;;5.50;99.90;;;;;;4971987;28;20035;-94
2023/12/15 07:28:32;;;;;;;30.63;12.93;;;5.50;99.90;;;;;;4955598;29;20027;-92
2023/12/15 07:30:57;;;;;;;31.60;14.15;;;5.40;99.90;;;;;;4954269;29;20052;-93
2023/12/15 07:33:23;;;;;;;30.17;13.82;;;5.50;99.90;;;;;;4954269;29;20031;-94
2023/12/15 07:35:49;;;;;;;28.58;14.20;;;5.40;99.90;;;;;;4953240;29;20023;-92
2023/12/15 07:38:14;;;;;;;31.63;15.00;;;5.40;99.90;;;;;;4953035;29;20032;-93
2023/12/15 07:40:40;;;;;;;31.75;13.35;;;5.50;99.90;;;;;;4953273;29;20082;-93
2023/12/15 07:43:06;;;;;;;30.13;14.40;;;5.50;99.90;;;;;;4950944;29;20035;-93
2023/12/15 07:45:35;;;;;;;32.22;16.20;;;5.50;99.90;;;;;;4951494;29;20402;-94
2023/12/15 07:48:02;;;;;;;33.38;14.27;;;5.50;99.90;;;;;;4951427;29;20028;-92
2023/12/15 07:50:28;;;;;;;28.50;13.60;;;5.50;99.90;;;;;;4953100;29;20052;-93
2023/12/15 07:52:53;;;;;;;30.63;12.32;;;5.50;99.90;;;;;;4948342;29;20035;-95
2023/12/15 07:55:19;;;;;;;30.60;13.27;;;5.50;99.90;;;;;;4930636;29;20055;-95
2023/12/15 07:57:45;;;;;;;32.25;15.52;;;5.50;99.90;;;;;;4939893;29;20079;-95
2023/12/15 08:00:11;;;;;;;32.22;13.30;;;5.60;99.90;;;;;;4950493;29;20083;-95
2023/12/15 08:02:37;;;;;;;31.40;13.63;;;5.50;99.90;;;;;;4949842;29;20028;-94
2023/12/15 08:05:02;;;;;;;29.80;13.73;;;5.60;99.90;;;;;;4950736;29;20030;-93
2023/12/15 08:07:28;;;;;;;32.25;13.75;;;5.60;99.90;;;;;;4949562;29;20035;-93
2023/12/15 08:09:54;;;;;;;32.03;13.88;;;5.60;99.90;;;;;;4938066;29;20084;-94
2023/12/15 08:12:19;;;;;;;32.58;15.15;;;5.60;99.90;;;;;;4937787;29;20048;-94
2023/12/15 08:14:45;;;;;;;30.70;13.82;;;5.60;99.90;;;;;;4950520;28;20262;-93
2023/12/15 08:17:14;;;;;;;31.98;13.68;;;5.60;99.90;;;;;;5038064;23;20054;-92
2023/12/15 08:19:40;;;;;;;32.60;13.23;;;5.70;99.90;;;;;;4982649;28;20181;-92
2023/12/15 08:22:06;;;;;;;32.78;13.88;;;5.70;99.90;;;;;;4973195;28;20025;-92
2023/12/15 08:24:35;;;;;;;30.98;15.70;;;5.70;99.90;;;;;;4959181;28;20098;-92
2023/12/15 08:27:04;;;;;;;37.05;16.00;;;5.70;99.90;;;;;;4948571;29;20099;-92
2023/12/15 08:29:30;;;;;;;30.42;13.27;;;5.70;99.90;;;;;;4947673;29;20023;-93
2023/12/15 08:31:55;;;;;;;33.58;16.15;;;5.70;99.90;;;;;;4949198;29;20023;-92
2023/12/15 08:34:26;;;;;;;34.58;13.45;;;5.60;99.90;;;;;;4945208;28;20024;-92
2023/12/15 08:36:52;;;;;;;41.90;16.65;;;5.60;99.90;;;;;;4942226;28;20415;-92
2023/12/15 08:39:18;;;;;;;30.85;13.68;;;5.60;99.90;;;;;;4940701;29;20032;-93
2023/12/15 08:41:46;;;;;;;32.78;14.20;;;5.60;99.90;;;;;;4940979;28;20083;-92
2023/12/15 08:44:12;;;;;;;40.63;15.23;;;5.60;99.90;;;;;;4955254;28;20067;-91
2023/12/15 08:46:41;;;;;;;33.40;14.20;;;5.60;99.90;;;;;;4955442;29;20031;-94
2023/12/15 08:49:07;;;;;;;28.48;14.48;;;5.70;99.90;;;;;;4960328;28;20509;-93
2023/12/15 08:51:56;;;;;;;32.17;16.15;;;5.70;99.90;;;;;;4944058;28;20168;-94
2023/12/15 08:54:32;;;;;;;39.20;14.65;;;5.70;99.90;;;;;;4939416;29;20039;-92
2023/12/15 08:56:58;;;;;;;36.42;15.85;;;5.70;99.90;;;;;;4945042;29;20030;-93
2023/12/15 08:59:23;;;;;;;39.40;16.30;;;5.70;99.90;;;;;;4939083;29;20031;-93
2023/12/15 09:01:49;;;;;;;30.95;12.75;;;5.70;99.90;;;;;;4953094;23;20047;-93
2023/12/15 09:04:15;;;;;;;35.38;14.85;;;5.70;99.90;;;;;;4962496;29;20107;-93
2023/12/15 09:06:41;;;;;;;33.65;13.65;;;5.80;99.90;;;;;;4969855;28;20091;-95
2023/12/15 09:09:07;;;;;;;34.83;13.82;;;5.70;99.90;;;;;;4952761;28;20046;-94
2023/12/15 09:11:34;;;;;;;32.63;12.80;;;5.70;99.90;;;;;;4955280;28;20026;-94
2023/12/15 09:14:01;;;;;;;36.10;15.60;;;5.70;99.90;;;;;;4964754;28;20042;-92
2023/12/15 09:16:27;;;;;;;34.88;13.77;;;5.80;99.90;;;;;;4950825;28;20023;-93
2023/12/15 09:18:52;;;;;;;33.53;16.98;;;5.80;99.90;;;;;;4965805;28;20430;-95
2023/12/15 09:21:18;;;;;;;29.77;14.32;;;5.80;99.90;;;;;;4963264;28;20038;-94
2023/12/15 09:23:44;;;;;;;26.25;13.45;;;5.90;99.90;;;;;;4963702;28;20074;-93
2023/12/15 09:26:10;;;;;;;28.75;13.55;;;5.90;99.90;;;;;;4963074;28;20032;-93
2023/12/15 09:28:37;;;;;;;30.85;13.68;;;5.90;99.90;;;;;;4966429;28;20057;-93
2023/12/15 09:31:03;;;;;;;29.92;15.02;;;5.90;99.90;;;;;;4947806;29;20399;-96
2023/12/15 09:33:29;;;;;;;31.83;12.48;;;6.00;99.90;;;;;;4961383;28;20046;-93
2023/12/15 09:35:56;;;;;;;30.73;14.32;;;6.00;99.90;;;;;;4964063;28;20725;-93
2023/12/15 09:38:24;;;;;;;28.13;12.88;;;6.00;99.90;;;;;;4969380;28;20062;-94
2023/12/15 09:40:50;;;;;;;25.45;11.48;;;6.10;99.90;;;;;;4967625;28;20093;-93
2023/12/15 09:43:16;;;;;;;34.08;13.02;;;6.10;99.90;;;;;;4949054;28;20031;-96
2023/12/15 09:45:42;;;;;;;25.73;10.98;;;6.10;99.90;;;;;;4962735;28;20031;-96
2023/12/15 09:48:10;;;;;;;27.65;11.50;;;6.20;99.90;;;;;;4965560;28;20031;-95
2023/12/15 09:50:40;;;;;;;27.52;11.70;;;6.20;99.90;;;;;;4964332;28;20027;-93
2023/12/15 09:53:05;;;;;;;26.30;10.77;;;6.20;99.90;;;;;;4962605;28;20114;-92
2023/12/15 09:55:32;;;;;;;26.38;12.30;;;6.40;99.90;;;;;;4969658;28;20054;-95
2023/12/15 09:58:00;;;;;;;29.20;11.10;;;6.40;99.90;;;;;;4946964;28;20027;-94
2023/12/15 10:00:25;;;;;;;21.13;10.13;;;6.50;99.90;;;;;;4946764;28;20034;-94
2023/12/15 10:02:51;;;;;;;30.00;13.25;;;6.60;99.90;;;;;;4964344;28;20039;-94
2023/12/15 10:05:18;;;;;;;25.88;12.00;;;6.70;99.90;;;;;;4969626;28;20031;-93
2023/12/15 10:07:44;;;;;;;23.50;10.27;;;6.70;99.90;;;;;;4964797;28;20061;-94
2023/12/15 10:10:13;;;;;;;21.77;10.82;;;6.70;99.90;;;;;;4968906;28;20529;-94
2023/12/15 10:12:42;;;;;;;21.35;11.05;;;6.80;99.90;;;;;;4970979;28;20250;-94
2023/12/15 10:15:08;;;;;;;24.73;12.25;;;6.70;99.90;;;;;;4966271;28;20024;-93
2023/12/15 10:17:34;;;;;;;20.75;8.82;;;6.80;99.90;;;;;;4966661;28;20038;-94
2023/12/15 10:20:08;;;;;;;23.35;11.23;;;6.80;99.90;;;;;;4972148;28;20070;-93
2023/12/15 10:22:34;;;;;;;24.17;9.85;;;6.80;99.90;;;;;;4948298;28;20031;-95
2023/12/15 10:25:00;;;;;;;20.90;9.45;;;6.80;99.90;;;;;;4967092;28;20039;-94
2023/12/15 10:27:26;;;;;;;21.73;9.65;;;6.80;99.90;;;;;;4967475;28;20028;-91
2023/12/15 10:29:52;;;;;;;20.63;9.93;;;6.80;99.90;;;;;;4967596;28;20099;-94
2023/12/15 10:32:18;;;;;;;14.77;8.20;;;6.70;99.90;;;;;;4964392;28;20024;-95
2023/12/15 10:34:44;;;;;;;20.45;8.20;;;6.70;99.90;;;;;;4966869;28;20167;-92
2023/12/15 10:37:09;;;;;;;22.10;8.50;;;6.70;99.90;;;;;;4947330;29;20026;-92
2023/12/15 10:39:35;;;;;;;25.00;9.20;;;6.70;99.90;;;;;;4967880;28;20019;-94
2023/12/15 10:42:03;;;;;;;23.05;11.77;;;6.80;99.90;;;;;;4963509;28;20391;-94
2023/12/15 10:44:30;;;;;;;16.80;9.25;;;6.70;99.90;;;;;;4965779;28;20039;-94
2023/12/15 10:46:58;;;;;;;18.63;8.55;;;6.70;99.90;;;;;;4945722;28;20037;-95
2023/12/15 10:49:27;;;;;;;17.20;7.93;;;6.80;99.90;;;;;;4964184;28;20099;-93
2023/12/15 10:51:53;;;;;;;15.10;8.18;;;6.60;99.90;;;;;;4966318;28;20054;-95
2023/12/15 10:54:18;;;;;;;24.83;9.15;;;6.70;99.90;;;;;;4963429;28;20031;-94
2023/12/15 10:56:45;;;;;;;16.38;8.48;;;6.70;99.90;;;;;;4944548;28;20035;-94
2023/12/15 10:59:10;;;;;;;16.50;8.52;;;6.70;99.90;;;;;;4949492;28;20027;-93
2023/12/15 11:01:40;;;;;;;21.27;8.90;;;6.70;99.90;;;;;;4964220;28;20031;-94
2023/12/15 11:04:22;;;;;;;16.20;9.32;;;6.80;99.90;;;;;;4964290;28;20054;-93
2023/12/15 11:06:48;;;;;;;20.25;8.10;;;6.70;99.90;;;;;;4942641;28;20069;-94
2023/12/15 11:09:29;;;;;;;18.38;7.90;;;6.80;99.90;;;;;;4966781;28;20062;-96
2023/12/15 11:12:32;;;;;;;19.30;10.25;;;6.80;99.90;;;;;;4967572;28;20370;-93
2023/12/15 11:15:00;;;;;;;19.15;9.02;;;6.80;99.90;;;;;;4966610;28;20019;-95
2023/12/15 11:17:27;;;;;;;;;;;6.90;99.90;;;;;;4944296;28;20038;-93
2023/12/15 11:20:33;;;;;;;17.55;7.28;;;7.00;99.90;;;;;;4952596;28;19906;-94
2023/12/15 11:23:07;;;;;;;18.00;7.57;;;7.00;99.90;;;;;;4946827;28;20046;-94
2023/12/15 11:25:37;;;;;;;17.02;8.07;;;7.00;99.90;;;;;;4944537;28;20059;-94
2023/12/15 11:28:13;;;;;;;19.90;8.77;;;6.90;99.90;;;;;;4962249;28;20024;-92
2023/12/15 11:30:44;;;;;;;15.07;7.75;;;7.00;99.90;;;;;;4961207;28;20035;-94
2023/12/15 11:33:30;;;;;;;16.48;8.68;;;6.90;99.90;;;;;;4962087;28;20059;-93
2023/12/15 11:36:00;;;;;;;16.77;7.93;;;6.90;99.90;;;;;;4942062;28;20587;-93
2023/12/15 11:38:26;;;;;;;19.02;9.23;;;7.00;99.90;;;;;;4961971;28;20024;-93
2023/12/15 11:40:53;;;;;;;15.80;7.78;;;7.00;99.90;;;;;;4963365;28;20023;-93
2023/12/15 11:43:21;;;;;;;15.98;8.20;;;7.00;99.90;;;;;;4943495;28;20035;-93
2023/12/15 11:45:51;;;;;;;16.67;8.68;;;7.10;99.90;;;;;;4960007;28;20056;-93
2023/12/15 11:48:16;;;;;;;17.17;8.15;;;7.00;99.90;;;;;;4960044;28;20035;-94
2023/12/15 11:50:45;;;;;;;17.95;8.25;;;7.10;99.90;;;;;;4962419;28;20033;-93
2023/12/15 11:53:14;;;;;;;14.27;7.22;;;7.10;99.90;;;;;;4958620;28;20026;-93
2023/12/15 11:55:41;;;;;;;17.25;8.45;;;7.10;99.90;;;;;;4956548;28;20030;-93
2023/12/15 11:58:07;;;;;;;17.17;8.95;;;7.20;99.90;;;;;;4964828;28;20091;-92
2023/12/15 12:00:33;;;;;;;12.35;7.82;;;7.20;99.90;;;;;;4965777;28;20043;-92
2023/12/15 12:02:59;;;;;;;17.08;7.47;;;7.20;99.90;;;;;;4941747;28;20066;-93
2023/12/15 12:05:27;;;;;;;16.13;7.43;;;7.20;99.90;;;;;;4947967;28;20067;-93
2023/12/15 12:07:52;;;;;;;17.38;8.52;;;7.30;99.90;;;;;;4942853;28;20031;-93
2023/12/15 12:10:18;;;;;;;14.68;8.23;;;7.20;99.90;;;;;;4963271;28;20113;-92
2023/12/15 12:12:45;;;;;;;13.60;8.52;;;7.10;99.90;;;;;;4943937;28;20122;-93
2023/12/15 12:15:11;;;;;;;12.70;6.78;;;7.10;99.90;;;;;;4956341;28;20477;-93
2023/12/15 12:17:38;;;;;;;17.23;7.50;;;7.20;99.90;;;;;;4937240;28;20834;-94
2023/12/15 12:20:11;;;;;;;16.05;8.23;;;7.20;99.90;;;;;;4960518;28;20291;-94
2023/12/15 12:22:41;;;;;;;15.70;7.40;;;7.20;99.90;;;;;;4945791;28;20027;-93
2023/12/15 12:25:10;;;;;;;15.55;7.13;;;7.20;99.90;;;;;;4959185;28;20046;-93
2023/12/15 12:27:35;;;;;;;12.75;7.22;;;7.20;99.90;;;;;;4958618;28;20031;-90
2023/12/15 12:30:02;;;;;;;14.52;8.98;;;7.20;99.90;;;;;;4959849;28;20371;-91
2023/12/15 12:32:31;;;;;;;9.88;6.13;;;7.20;99.90;;;;;;4944807;28;20089;-92
2023/12/15 12:34:57;;;;;;;11.98;7.15;;;7.20;99.90;;;;;;4957792;28;20051;-94
2023/12/15 12:37:25;;;;;;;14.15;7.13;;;7.20;99.90;;;;;;4945527;28;20023;-93
2023/12/15 12:39:51;;;;;;;11.35;5.45;;;7.20;99.90;;;;;;4941931;28;20053;-93